createdAt,value
2022-10-01T00:02:07.704Z,8.37
2022-10-01T00:04:36.511Z,8.46
2022-10-01T00:07:07.230Z,8.57
2022-10-01T00:09:34.940Z,8.23
2022-10-01T00:12:03.567Z,8.59
2022-10-01T00:14:31.305Z,8.44
2022-10-01T00:16:58.911Z,8.31
2022-10-01T00:19:27.130Z,8.44
2022-10-01T00:21:54.946Z,8.15
2022-10-01T00:24:22.573Z,7.78
2022-10-01T00:26:50.180Z,7.18
2022-10-01T00:29:17.690Z,7.30
2022-10-01T00:31:45.373Z,7.44
2022-10-01T00:34:13.699Z,7.07
2022-10-01T00:36:42.537Z,7.10
2022-10-01T00:39:11.672Z,7.30
2022-10-01T00:41:39.838Z,7.24
2022-10-01T00:44:26.789Z,7.45
2022-10-01T00:46:57.787Z,7.63
2022-10-01T00:49:29.200Z,7.79
2022-10-01T00:52:02.856Z,7.56
2022-10-01T00:54:52.396Z,7.08
2022-10-01T00:57:23.196Z,7.55
2022-10-01T00:59:53.749Z,7.16
2022-10-01T01:02:21.317Z,7.37
2022-10-01T01:04:49.011Z,7.14
2022-10-01T01:07:16.790Z,7.44
2022-10-01T01:09:50.308Z,7.24
2022-10-01T01:12:17.834Z,7.69
2022-10-01T01:14:58.032Z,7.98
2022-10-01T01:17:34.091Z,7.44
2022-10-01T01:20:04.855Z,7.65
2022-10-01T01:22:36.110Z,8.28
2022-10-01T01:25:19.359Z,7.77
2022-10-01T01:28:03.949Z,8.06
2022-10-01T01:30:34.048Z,7.80
2022-10-01T01:33:09.331Z,7.80
2022-10-01T01:35:42.173Z,7.98
2022-10-01T01:38:14.944Z,7.90
2022-10-01T01:40:45.815Z,8.10
2022-10-01T01:43:19.557Z,7.86
2022-10-01T01:45:50.694Z,7.68
2022-10-01T01:48:18.255Z,7.55
2022-10-01T01:51:04.786Z,7.79
2022-10-01T01:53:32.517Z,7.72
2022-10-01T01:56:00.459Z,7.71
2022-10-01T01:58:29.126Z,7.45
2022-10-01T02:00:56.705Z,7.35
2022-10-01T02:03:26.420Z,7.38
2022-10-01T02:06:09.392Z,7.79
2022-10-01T02:08:57.331Z,7.15
2022-10-01T02:11:32.803Z,7.28
2022-10-01T02:14:03.616Z,7.36
2022-10-01T02:16:50.122Z,7.21
2022-10-01T02:19:24.804Z,6.70
2022-10-01T02:21:58.658Z,7.16
2022-10-01T02:24:37.885Z,7.00
2022-10-01T02:27:08.783Z,6.97
2022-10-01T02:29:38.787Z,6.86
2022-10-01T02:32:06.931Z,7.07
2022-10-01T02:34:34.499Z,6.95
2022-10-01T02:37:05.669Z,6.71
2022-10-01T02:39:36.155Z,7.26
2022-10-01T02:42:05.880Z,6.92
2022-10-01T02:44:40.321Z,6.67
2022-10-01T02:47:14.245Z,6.55
2022-10-01T02:49:42.036Z,6.61
2022-10-01T02:52:18.544Z,6.90
2022-10-01T02:54:57.076Z,7.07
2022-10-01T02:57:28.938Z,6.92
2022-10-01T02:59:59.312Z,6.86
2022-10-01T03:02:28.276Z,6.53
2022-10-01T03:04:59.685Z,6.99
2022-10-01T03:07:28.437Z,6.75
2022-10-01T03:09:56.695Z,6.99
2022-10-01T03:12:24.265Z,7.13
2022-10-01T03:14:53.811Z,7.28
2022-10-01T03:17:21.644Z,7.78
2022-10-01T03:19:49.240Z,7.95
2022-10-01T03:22:22.802Z,8.11
2022-10-01T03:24:53.600Z,7.56
2022-10-01T03:27:22.257Z,7.22
2022-10-01T03:29:49.792Z,7.63
2022-10-01T03:32:17.850Z,7.63
2022-10-01T03:34:45.360Z,7.41
2022-10-01T03:37:13.293Z,7.48
2022-10-01T03:39:41.106Z,7.43
2022-10-01T03:42:08.704Z,7.13
2022-10-01T03:44:36.333Z,7.68
2022-10-01T03:47:04.086Z,7.36
2022-10-01T03:49:31.634Z,7.44
2022-10-01T03:51:59.284Z,7.96
2022-10-01T03:54:27.006Z,7.55
2022-10-01T03:56:54.612Z,7.53
2022-10-01T03:59:22.431Z,7.46
2022-10-01T04:01:50.413Z,7.41
2022-10-01T04:04:18.141Z,6.95
2022-10-01T04:06:45.893Z,7.30
2022-10-01T04:09:13.438Z,7.35
2022-10-01T04:11:40.989Z,7.34
2022-10-01T04:14:09.102Z,7.26
2022-10-01T04:16:36.777Z,7.48
2022-10-01T04:19:05.175Z,7.50
2022-10-01T04:21:33.138Z,7.80
2022-10-01T04:24:03.186Z,7.43
2022-10-01T04:26:31.018Z,7.58
2022-10-01T04:28:58.741Z,7.36
2022-10-01T04:31:26.522Z,7.38
2022-10-01T04:33:55.664Z,7.11
2022-10-01T04:36:24.053Z,7.40
2022-10-01T04:38:59.327Z,7.89
2022-10-01T04:41:31.167Z,7.56
2022-10-01T04:43:59.912Z,7.42
2022-10-01T04:46:29.835Z,7.63
2022-10-01T04:48:57.657Z,7.45
2022-10-01T04:51:25.329Z,7.51
2022-10-01T04:53:52.933Z,8.06
2022-10-01T04:56:20.616Z,7.80
2022-10-01T04:58:49.127Z,7.86
2022-10-01T05:01:16.736Z,7.57
2022-10-01T05:03:44.332Z,7.93
2022-10-01T05:06:11.941Z,7.82
2022-10-01T05:08:39.464Z,7.76
2022-10-01T05:11:07.153Z,7.78
2022-10-01T05:13:34.730Z,7.61
2022-10-01T05:16:03.845Z,7.89
2022-10-01T05:18:32.590Z,7.81
2022-10-01T05:21:04.692Z,8.43
2022-10-01T05:23:33.290Z,8.13
2022-10-01T05:26:01.245Z,8.08
2022-10-01T05:28:28.978Z,8.01
2022-10-01T05:30:58.790Z,8.02
2022-10-01T05:33:30.771Z,7.96
2022-10-01T05:35:58.935Z,7.98
2022-10-01T05:38:26.489Z,7.80
2022-10-01T05:40:54.100Z,8.03
2022-10-01T05:43:21.932Z,8.03
2022-10-01T05:45:51.326Z,8.05
2022-10-01T05:48:19.408Z,8.30
2022-10-01T05:50:47.135Z,7.98
2022-10-01T05:53:16.284Z,8.57
2022-10-01T05:55:44.134Z,8.76
2022-10-01T05:58:13.132Z,9.05
2022-10-01T06:00:41.884Z,8.91
2022-10-01T06:03:13.003Z,8.75
2022-10-01T06:05:40.920Z,8.71
2022-10-01T06:08:11.513Z,8.74
2022-10-01T06:10:39.340Z,8.63
2022-10-01T06:13:07.663Z,9.16
2022-10-01T06:15:37.871Z,10.39
2022-10-01T06:18:07.406Z,13.24
2022-10-01T06:20:35.549Z,14.88
2022-10-01T06:23:09.582Z,16.45
2022-10-01T06:25:38.397Z,16.92
2022-10-01T06:28:07.357Z,16.15
2022-10-01T06:30:36.924Z,17.75
2022-10-01T06:33:06.631Z,19.40
2022-10-01T06:35:35.497Z,19.29
2022-10-01T06:38:03.107Z,18.89
2022-10-01T06:40:31.228Z,19.47
2022-10-01T06:42:59.084Z,19.20
2022-10-01T06:45:28.259Z,19.32
2022-10-01T06:47:57.535Z,20.09
2022-10-01T06:50:25.691Z,21.09
2022-10-01T06:52:53.352Z,22.68
2022-10-01T06:55:25.632Z,22.65
2022-10-01T06:57:58.385Z,23.65
2022-10-01T07:00:27.052Z,23.82
2022-10-01T07:02:55.795Z,23.22
2022-10-01T07:05:24.456Z,23.00
2022-10-01T07:07:52.142Z,23.52
2022-10-01T07:10:20.952Z,23.08
2022-10-01T07:12:50.113Z,23.88
2022-10-01T07:15:19.367Z,23.80
2022-10-01T07:17:49.537Z,22.91
2022-10-01T07:20:18.639Z,22.50
2022-10-01T07:22:47.442Z,21.90
2022-10-01T07:25:15.072Z,18.42
2022-10-01T07:27:42.695Z,17.57
2022-10-01T07:30:10.564Z,17.21
2022-10-01T07:32:38.112Z,16.87
2022-10-01T07:35:06.153Z,16.99
2022-10-01T07:37:33.765Z,17.37
2022-10-01T07:40:06.555Z,15.95
2022-10-01T07:42:35.639Z,16.06
2022-10-01T07:45:06.848Z,15.93
2022-10-01T07:47:34.935Z,13.69
2022-10-01T07:50:03.308Z,12.71
2022-10-01T07:52:30.776Z,12.68
2022-10-01T07:54:58.317Z,11.99
2022-10-01T07:57:25.863Z,10.43
2022-10-01T07:59:55.838Z,10.36
2022-10-01T08:02:23.951Z,11.01
2022-10-01T08:05:10.097Z,11.12
2022-10-01T08:07:37.665Z,11.59
2022-10-01T08:10:05.650Z,12.30
2022-10-01T08:12:33.187Z,12.23
2022-10-01T08:15:02.338Z,11.24
2022-10-01T08:17:30.488Z,11.94
2022-10-01T08:19:58.060Z,11.22
2022-10-01T08:22:25.625Z,10.09
2022-10-01T08:25:18.982Z,9.96
2022-10-01T08:27:48.701Z,10.43
2022-10-01T08:30:16.403Z,10.57
2022-10-01T08:32:43.962Z,10.59
2022-10-01T08:35:11.982Z,11.01
2022-10-01T08:37:39.568Z,10.66
2022-10-01T08:40:07.455Z,10.73
2022-10-01T08:42:46.023Z,10.36
2022-10-01T08:45:22.357Z,10.59
2022-10-01T08:48:05.706Z,11.59
2022-10-01T08:50:36.248Z,11.15
2022-10-01T08:53:07.220Z,11.13
2022-10-01T08:55:37.403Z,11.38
2022-10-01T08:58:09.344Z,10.66
2022-10-01T09:00:40.653Z,10.95
2022-10-01T09:03:12.883Z,11.01
2022-10-01T09:06:03.627Z,11.10
2022-10-01T09:08:50.151Z,12.18
2022-10-01T09:11:38.124Z,11.99
2022-10-01T09:14:12.417Z,11.76
2022-10-01T09:16:49.628Z,11.63
2022-10-01T09:19:32.268Z,13.44
2022-10-01T09:22:11.589Z,13.49
2022-10-01T09:24:40.695Z,12.67
2022-10-01T09:27:15.176Z,12.67
2022-10-01T09:29:50.618Z,11.79
2022-10-01T09:32:23.118Z,11.54
2022-10-01T09:34:52.308Z,12.46
2022-10-01T09:37:32.596Z,13.40
2022-10-01T09:40:00.221Z,13.54
2022-10-01T09:42:29.633Z,12.62
2022-10-01T09:44:58.343Z,12.46
2022-10-01T09:47:26.581Z,12.64
2022-10-01T09:49:54.716Z,12.42
2022-10-01T09:52:26.945Z,12.92
2022-10-01T09:55:13.636Z,12.71
2022-10-01T09:57:44.975Z,12.06
2022-10-01T10:00:18.487Z,11.19
2022-10-01T10:02:50.901Z,11.07
2022-10-01T10:05:23.686Z,11.12
2022-10-01T10:07:54.257Z,10.97
2022-10-01T10:10:30.697Z,11.04
2022-10-01T10:13:04.291Z,11.07
2022-10-01T10:15:33.299Z,11.47
2022-10-01T10:18:12.308Z,12.51
2022-10-01T10:20:43.682Z,11.74
2022-10-01T10:23:16.390Z,10.93
2022-10-01T10:25:44.052Z,10.35
2022-10-01T10:28:19.442Z,11.09
2022-10-01T10:30:48.308Z,10.55
2022-10-01T10:33:18.398Z,10.85
2022-10-01T10:35:46.009Z,10.27
2022-10-01T10:38:20.678Z,11.94
2022-10-01T10:40:48.313Z,11.55
2022-10-01T10:43:21.022Z,11.49
2022-10-01T10:45:56.143Z,9.46
2022-10-01T10:48:37.634Z,8.69
2022-10-01T10:51:06.589Z,7.71
2022-10-01T10:53:43.851Z,7.88
2022-10-01T10:56:22.991Z,7.17
2022-10-01T10:58:51.846Z,8.84
2022-10-01T11:01:29.797Z,8.24
2022-10-01T11:04:01.139Z,8.32
2022-10-01T11:06:31.168Z,7.73
2022-10-01T11:09:01.537Z,7.75
2022-10-01T11:11:55.289Z,8.14
2022-10-01T11:14:25.897Z,7.04
2022-10-01T11:16:53.472Z,6.91
2022-10-01T11:19:31.791Z,6.23
2022-10-01T11:22:13.220Z,6.15
2022-10-01T11:24:59.351Z,5.48
2022-10-01T11:27:45.625Z,5.32
2022-10-01T11:30:13.196Z,5.16
2022-10-01T11:32:47.047Z,5.95
2022-10-01T11:35:22.391Z,5.71
2022-10-01T11:38:08.350Z,4.89
2022-10-01T11:40:56.274Z,5.33
2022-10-01T11:43:40.038Z,5.41
2022-10-01T11:46:11.396Z,5.82
2022-10-01T11:48:46.657Z,5.18
2022-10-01T11:51:18.365Z,6.37
2022-10-01T11:54:12.196Z,7.33
2022-10-01T11:57:03.377Z,5.65
2022-10-01T11:59:38.580Z,5.58
2022-10-01T12:02:20.235Z,6.08
2022-10-01T12:04:58.185Z,6.53
2022-10-01T12:07:30.297Z,5.30
2022-10-01T12:10:03.619Z,4.67
2022-10-01T12:12:36.210Z,5.06
2022-10-01T12:15:12.698Z,4.96
2022-10-01T12:17:54.769Z,4.68
2022-10-01T12:20:22.398Z,4.52
2022-10-01T12:22:52.288Z,4.08
2022-10-01T12:25:24.999Z,3.88
2022-10-01T12:28:10.735Z,3.48
2022-10-01T12:30:46.573Z,3.61
2022-10-01T12:33:33.112Z,3.57
2022-10-01T12:36:03.499Z,3.56
2022-10-01T12:38:30.984Z,3.33
2022-10-01T12:41:17.377Z,3.42
2022-10-01T12:44:04.727Z,3.78
2022-10-01T12:46:35.284Z,3.45
2022-10-01T12:49:03.039Z,3.31
2022-10-01T12:51:30.860Z,3.66
2022-10-01T12:54:13.396Z,3.90
2022-10-01T12:56:47.305Z,3.87
2022-10-01T12:59:15.149Z,3.61
2022-10-01T13:01:58.224Z,3.50
2022-10-01T13:04:44.828Z,3.61
2022-10-01T13:07:21.233Z,3.58
2022-10-01T13:09:49.163Z,3.76
2022-10-01T13:12:26.463Z,3.47
2022-10-01T13:14:55.991Z,3.28
2022-10-01T13:17:34.479Z,3.36
2022-10-01T13:20:05.517Z,3.35
2022-10-01T13:22:45.233Z,3.29
2022-10-01T13:25:31.850Z,3.52
2022-10-01T13:28:09.987Z,3.53
2022-10-01T13:31:04.017Z,3.53
2022-10-01T13:33:32.936Z,3.54
2022-10-01T13:36:02.620Z,3.95
2022-10-01T13:38:39.273Z,4.99
2022-10-01T13:41:16.116Z,4.31
2022-10-01T13:43:56.935Z,3.64
2022-10-01T13:46:31.113Z,3.75
2022-10-01T13:49:23.025Z,4.09
2022-10-01T13:51:52.666Z,3.10
2022-10-01T13:54:31.129Z,3.45
2022-10-01T13:57:26.939Z,3.23
2022-10-01T13:59:58.834Z,2.88
2022-10-01T14:02:29.635Z,2.84
2022-10-01T14:05:06.280Z,3.11
2022-10-01T14:07:38.497Z,2.59
2022-10-01T14:10:10.929Z,2.96
2022-10-01T14:13:00.874Z,2.83
2022-10-01T14:16:02.792Z,3.17
2022-10-01T14:18:34.362Z,3.74
2022-10-01T14:21:15.720Z,2.99
2022-10-01T14:23:46.260Z,2.93
2022-10-01T14:26:22.450Z,3.43
2022-10-01T14:28:50.064Z,3.82
2022-10-01T14:31:23.409Z,3.36
2022-10-01T14:33:50.998Z,3.19
2022-10-01T14:36:22.383Z,3.31
2022-10-01T14:38:49.953Z,3.65
2022-10-01T14:41:19.057Z,3.37
2022-10-01T14:43:46.988Z,3.51
2022-10-01T14:46:16.795Z,3.43
2022-10-01T14:48:44.423Z,3.30
2022-10-01T14:51:26.221Z,3.29
2022-10-01T14:53:56.804Z,3.66
2022-10-01T14:56:26.068Z,3.78
2022-10-01T14:58:57.267Z,4.24
2022-10-01T15:01:25.864Z,4.07
2022-10-01T15:03:54.563Z,4.01
2022-10-01T15:06:30.425Z,3.50
2022-10-01T15:09:10.880Z,3.59
2022-10-01T15:11:44.302Z,3.73
2022-10-01T15:14:17.884Z,3.84
2022-10-01T15:16:46.333Z,4.43
2022-10-01T15:19:16.865Z,4.71
2022-10-01T15:21:44.422Z,4.28
2022-10-01T15:24:20.357Z,4.73
2022-10-01T15:26:50.025Z,5.40
2022-10-01T15:29:18.015Z,4.48
2022-10-01T15:31:47.543Z,3.78
2022-10-01T15:34:19.705Z,4.16
2022-10-01T15:36:49.138Z,4.50
2022-10-01T15:39:31.740Z,4.37
2022-10-01T15:42:02.429Z,4.88
2022-10-01T15:44:45.946Z,5.78
2022-10-01T15:47:19.641Z,6.20
2022-10-01T15:50:01.084Z,5.98
2022-10-01T15:52:52.395Z,6.43
2022-10-01T15:55:25.930Z,6.11
2022-10-01T15:58:03.830Z,5.88
2022-10-01T16:00:38.740Z,5.27
2022-10-01T16:03:06.494Z,5.75
2022-10-01T16:05:44.508Z,5.49
2022-10-01T16:08:21.326Z,5.39
2022-10-01T16:11:07.902Z,5.96
2022-10-01T16:13:40.521Z,6.29
2022-10-01T16:16:10.831Z,5.94
2022-10-01T16:18:39.043Z,5.86
2022-10-01T16:21:09.372Z,6.43
2022-10-01T16:23:36.923Z,6.22
2022-10-01T16:26:06.151Z,6.60
2022-10-01T16:28:35.904Z,6.21
2022-10-01T16:31:04.711Z,6.53
2022-10-01T16:33:32.397Z,6.82
2022-10-01T16:36:08.479Z,6.73
2022-10-01T16:38:37.595Z,6.13
2022-10-01T16:41:05.503Z,6.28
2022-10-01T16:43:33.260Z,6.20
2022-10-01T16:46:01.212Z,5.82
2022-10-01T16:48:28.984Z,5.93
2022-10-01T16:50:59.207Z,5.99
2022-10-01T16:53:27.401Z,6.16
2022-10-01T16:55:56.453Z,6.12
2022-10-01T16:58:24.725Z,6.49
2022-10-01T17:00:52.383Z,7.19
2022-10-01T17:03:22.497Z,7.29
2022-10-01T17:05:50.212Z,6.13
2022-10-01T17:08:17.793Z,6.34
2022-10-01T17:10:48.199Z,6.50
2022-10-01T17:13:15.857Z,5.61
2022-10-01T17:15:43.665Z,4.86
2022-10-01T17:18:12.234Z,4.49
2022-10-01T17:20:39.928Z,4.43
2022-10-01T17:23:07.556Z,3.91
2022-10-01T17:25:37.149Z,3.91
2022-10-01T17:28:06.583Z,3.62
2022-10-01T17:30:34.833Z,3.83
2022-10-01T17:33:02.450Z,3.53
2022-10-01T17:35:30.285Z,3.36
2022-10-01T17:37:58.504Z,4.05
2022-10-01T17:40:26.223Z,6.02
2022-10-01T17:42:53.772Z,3.71
2022-10-01T17:45:21.333Z,4.05
2022-10-01T17:47:50.584Z,3.90
2022-10-01T17:50:18.227Z,3.71
2022-10-01T17:52:48.728Z,3.14
2022-10-01T17:55:17.326Z,3.35
2022-10-01T17:57:44.798Z,3.26
2022-10-01T18:00:12.480Z,3.42
2022-10-01T18:02:42.971Z,3.48
2022-10-01T18:05:14.617Z,3.62
2022-10-01T18:07:43.053Z,3.39
2022-10-01T18:10:12.100Z,3.10
2022-10-01T18:12:40.541Z,3.17
2022-10-01T18:15:08.267Z,3.06
2022-10-01T18:17:36.789Z,3.02
2022-10-01T18:20:05.653Z,2.80
2022-10-01T18:22:33.988Z,2.75
2022-10-01T18:25:03.502Z,2.73
2022-10-01T18:27:31.203Z,2.64
2022-10-01T18:29:58.761Z,2.89
2022-10-01T18:32:31.414Z,2.60
2022-10-01T18:35:01.179Z,2.82
2022-10-01T18:37:40.297Z,2.59
2022-10-01T18:40:13.343Z,2.54
2022-10-01T18:42:50.322Z,2.53
2022-10-01T18:45:27.241Z,2.65
2022-10-01T18:47:55.159Z,2.36
2022-10-01T18:50:51.969Z,2.42
2022-10-01T18:53:37.933Z,2.35
2022-10-01T18:56:35.423Z,2.42
2022-10-01T18:59:15.296Z,2.22
2022-10-01T19:01:43.093Z,2.37
2022-10-01T19:04:24.432Z,2.23
2022-10-01T19:07:01.877Z,4.44
2022-10-01T19:10:07.149Z,3.09
2022-10-01T19:13:09.667Z,2.40
2022-10-01T19:16:11.117Z,3.31
2022-10-01T19:19:09.753Z,2.53
2022-10-01T19:22:09.785Z,2.52
2022-10-01T19:25:13.944Z,2.68
2022-10-01T19:28:13.116Z,2.57
2022-10-01T19:31:24.220Z,2.39
2022-10-01T19:34:22.846Z,2.35
2022-10-01T19:37:19.970Z,3.05
2022-10-01T19:40:16.266Z,3.37
2022-10-01T19:43:15.188Z,2.62
2022-10-01T19:45:56.524Z,2.58
2022-10-01T19:48:24.028Z,2.36
2022-10-01T19:51:02.271Z,2.40
2022-10-01T19:53:33.755Z,2.16
2022-10-01T19:56:02.485Z,2.27
2022-10-01T19:58:32.517Z,2.24
2022-10-01T20:01:02.988Z,2.08
2022-10-01T20:03:39.030Z,2.07
2022-10-01T20:06:16.696Z,2.26
2022-10-01T20:08:52.958Z,2.03
2022-10-01T20:11:32.926Z,1.84
2022-10-01T20:14:35.603Z,1.95
2022-10-01T20:17:15.547Z,2.01
2022-10-01T20:19:51.801Z,2.01
2022-10-01T20:22:22.095Z,1.92
2022-10-01T20:25:03.680Z,1.91
2022-10-01T20:27:52.614Z,1.89
2022-10-01T20:30:21.309Z,2.01
2022-10-01T20:33:07.871Z,2.25
2022-10-01T20:35:43.453Z,1.98
2022-10-01T20:38:22.805Z,1.74
2022-10-01T20:41:04.891Z,1.62
2022-10-01T20:43:37.476Z,1.59
2022-10-01T20:46:25.401Z,1.84
2022-10-01T20:48:59.706Z,1.84
2022-10-01T20:51:34.017Z,1.93
2022-10-01T20:54:15.142Z,1.59
2022-10-01T20:56:51.968Z,1.70
2022-10-01T20:59:40.316Z,1.80
2022-10-01T21:02:20.217Z,1.99
2022-10-01T21:05:01.579Z,1.91
2022-10-01T21:07:38.390Z,1.76
2022-10-01T21:10:22.152Z,1.82
2022-10-01T21:12:58.720Z,1.71
2022-10-01T21:15:35.042Z,1.70
2022-10-01T21:18:23.029Z,1.52
2022-10-01T21:21:09.334Z,2.93
2022-10-01T21:23:36.821Z,2.13
2022-10-01T21:26:07.347Z,1.63
2022-10-01T21:28:35.222Z,1.56
2022-10-01T21:31:08.686Z,1.80
2022-10-01T21:33:54.232Z,1.65
2022-10-01T21:36:33.125Z,1.64
2022-10-01T21:39:10.228Z,1.81
2022-10-01T21:41:38.122Z,1.87
2022-10-01T21:44:28.939Z,1.91
2022-10-01T21:47:09.636Z,1.66
2022-10-01T21:49:55.457Z,1.74
2022-10-01T21:52:25.748Z,1.78
2022-10-01T21:54:56.325Z,1.65
2022-10-01T21:57:43.371Z,1.57
2022-10-01T22:00:21.395Z,1.58
2022-10-01T22:02:54.808Z,1.84
2022-10-01T22:05:23.447Z,1.59
2022-10-01T22:08:07.670Z,1.76
2022-10-01T22:10:42.135Z,1.58
2022-10-01T22:13:14.896Z,1.41
2022-10-01T22:15:44.606Z,1.50
2022-10-01T22:18:18.358Z,1.42
2022-10-01T22:20:47.701Z,1.28
2022-10-01T22:23:17.686Z,1.42
2022-10-01T22:25:51.791Z,1.50
2022-10-01T22:28:24.750Z,1.15
2022-10-01T22:30:53.896Z,1.47
2022-10-01T22:33:27.718Z,1.25
2022-10-01T22:36:09.112Z,1.31
2022-10-01T22:38:43.487Z,1.32
2022-10-01T22:41:17.382Z,1.24
2022-10-01T22:43:45.909Z,1.34
2022-10-01T22:46:28.667Z,1.20
2022-10-01T22:48:56.173Z,1.75
2022-10-01T22:51:46.687Z,1.43
2022-10-01T22:54:14.156Z,1.17
2022-10-01T22:57:03.388Z,1.23
2022-10-01T22:59:36.839Z,1.35
2022-10-01T23:02:12.739Z,1.29
2022-10-01T23:04:59.176Z,1.27
2022-10-01T23:07:26.746Z,1.17
2022-10-01T23:10:01.842Z,1.20
2022-10-01T23:12:53.896Z,1.17
2022-10-01T23:15:24.483Z,1.20
2022-10-01T23:18:02.073Z,1.24
2022-10-01T23:20:29.663Z,1.13
2022-10-01T23:23:26.360Z,1.17
2022-10-01T23:26:12.646Z,1.28
2022-10-01T23:28:40.297Z,1.16
2022-10-01T23:31:20.011Z,1.02
2022-10-01T23:33:50.653Z,0.95
2022-10-01T23:36:23.878Z,1.07
2022-10-01T23:38:51.516Z,1.10
2022-10-01T23:41:25.466Z,1.24
2022-10-01T23:43:56.758Z,1.23
2022-10-01T23:46:29.604Z,0.89
2022-10-01T23:49:00.283Z,1.21
2022-10-01T23:51:46.087Z,0.97
2022-10-01T23:54:25.481Z,1.13
2022-10-01T23:56:55.974Z,0.96
2022-10-01T23:59:46.443Z,0.92
